Em Athens — V7US8 — position and weather

sailwx.info

Track history (hours):
 
Tides and Currents Weather Stations Pressure Air Temp Water Temp Dewpoint Dewpoint Depression Visibility Wind Speed Wind Dir Waves Ship Positions

Em Athens

Last reported at 2016-Jun-24 21:24 UTC. Time now 2016-Jun-24 22:23 UTC.
Position N 42°54' E 004°52'.

Length 207 m; draft 9.5 m.

Type: Ship (hazmat cat C). MMSI: 538004019.

Date/timePositionNaut miles runAvg speedWind from/ knotsBaromVisibWave heightAir tempDewpointWater temp
2016-Jun-24 21:24N 42°54' E 004°52'1214.0
2016-Jun-24 20:34N 43°03' E 005°02'1513.2
2016-Jun-24 19:24N 43°17' E 005°11'5 0.1
2016-Jun-23 05:12N 43°20' E 005°16'6 8.8
2016-Jun-23 04:33N 43°16' E 005°11'5913.7
2016-Jun-23 00:15N 42°45' E 006°19'41 9.9
2016-Jun-22 20:06N 43°08' E 007°05'612.1
2016-Jun-22 19:33N 43°13' E 007°11'1312.9
2016-Jun-22 18:33N 43°21' E 007°26'1413.6
2016-Jun-22 17:33N 43°28' E 007°42'3213.8
2016-Jun-22 15:16N 43°45' E 008°18'1013.6
2016-Jun-22 14:33N 43°51' E 008°28'1413.9
2016-Jun-22 13:33N 44°02' E 008°40'1414.0
2016-Jun-22 12:33N 44°14' E 008°51'1110.5
2016-Jun-22 11:33N 44°24' E 008°55'1 1.0
2016-Jun-22 10:29N 44°24' E 008°54'0 0.0
2016-Jun-22 09:29N 44°24' E 008°54'0 0.0
2016-Jun-22 08:32N 44°24' E 008°54'0 0.0
2016-Jun-22 07:32N 44°24' E 008°54'0 0.0
2016-Jun-22 06:32N 44°24' E 008°54'0 0.0
2016-Jun-22 05:32N 44°24' E 008°54'0 0.0
2016-Jun-22 04:32N 44°24' E 008°54'1 0.6
2016-Jun-22 03:33N 44°24' E 008°55'5 5.4
2016-Jun-22 02:33N 44°19' E 008°56'3 3.0
2016-Jun-22 01:33N 44°16' E 008°53'0 0.3
2016-Jun-22 00:33N 44°16' E 008°54'0 0.3
2016-Jun-21 23:33N 44°17' E 008°53'0 0.1
2016-Jun-21 22:33N 44°17' E 008°53'1 0.7
2016-Jun-21 21:33N 44°17' E 008°54'7 7.4
2016-Jun-21 20:33N 44°12' E 009°03'1313.0
2016-Jun-21 19:33N 44°02' E 009°14'1313.1
2016-Jun-21 18:33N 43°53' E 009°27'1313.1
2016-Jun-21 17:33N 43°44' E 009°40'1313.0
2016-Jun-21 16:33N 43°35' E 009°53'1212.4
2016-Jun-21 15:33N 43°30' E 010°09'8 7.5
2016-Jun-21 14:33N 43°34' E 010°18'0 0.1
2016-Jun-21 13:31N 43°34' E 010°18'0 0.0
2016-Jun-21 12:31N 43°34' E 010°18'0 0.0
2016-Jun-21 11:22N 43°34' E 010°18'0 0.0
2016-Jun-21 10:31N 43°34' E 010°18'0 0.0
2016-Jun-21 09:31N 43°34' E 010°18'0 0.0
2016-Jun-21 08:31N 43°34' E 010°18'0 0.0
2016-Jun-21 07:31N 43°34' E 010°18'1 0.6
2016-Jun-21 06:33N 43°34' E 010°18'3 1.6
2016-Jun-21 04:30N 43°31' E 010°17'0 0.0
2016-Jun-21 03:33N 43°31' E 010°17'0 0.0
2016-Jun-21 02:33N 43°31' E 010°17'0 0.0
2016-Jun-21 01:33N 43°31' E 010°17'0 0.0
2016-Jun-21 00:33N 43°31' E 010°17'0 0.1
2016-Jun-20 23:33N 43°31' E 010°17'0 0.0
2016-Jun-20 22:33N 43°31' E 010°17'0 0.0
2016-Jun-20 21:30N 43°31' E 010°17'0 0.0
2016-Jun-20 20:33N 43°31' E 010°17'0 0.0
2016-Jun-20 19:33N 43°31' E 010°17'0 0.0
2016-Jun-20 18:33N 43°31' E 010°17'0 0.0
2016-Jun-20 17:27N 43°31' E 010°17'0 0.0
2016-Jun-20 16:33N 43°31' E 010°17'0 0.0
2016-Jun-20 15:33N 43°31' E 010°17'0 0.1
2016-Jun-20 14:33N 43°31' E 010°16'8 7.9
2016-Jun-20 13:33N 43°24' E 010°11'1212.3
2016-Jun-20 12:33N 43°12' E 010°06'1212.3
2016-Jun-20 11:33N 43°01' E 010°00'37012.5
2016-Jun-19 06:04N 37°11' E 012°36'611.8
2016-Jun-19 05:33N 37°06' E 012°41'1211.9
2016-Jun-19 04:33N 36°57' E 012°51'1212.3
2016-Jun-19 03:33N 36°48' E 013°02'1212.3
2016-Jun-19 02:33N 36°40' E 013°13'1211.9
2016-Jun-19 01:33N 36°31' E 013°23'1211.8
2016-Jun-19 00:33N 36°22' E 013°33'1212.0
2016-Jun-18 23:33N 36°13' E 013°43'1312.6
2016-Jun-18 22:33N 36°04' E 013°53'1313.0
2016-Jun-18 21:33N 35°55' E 014°04'1212.3
2016-Jun-18 20:33N 35°46' E 014°15'1111.1
2016-Jun-18 19:33N 35°45' E 014°29'5 4.6
2016-Jun-18 18:32N 35°49' E 014°32'0 0.0
2016-Jun-17 23:19N 35°49' E 014°32'7 4.1
2016-Jun-17 21:33N 35°42' E 014°30'1 0.7
2016-Jun-17 20:33N 35°41' E 014°31'1 0.9
2016-Jun-17 19:33N 35°41' E 014°31'1 1.0
2016-Jun-17 18:32N 35°40' E 014°32'4 1.3
2016-Jun-17 15:32N 35°38' E 014°36'3 2.8
2016-Jun-17 14:32N 35°40' E 014°37'4 4.1
2016-Jun-17 13:30N 35°43' E 014°40'1 0.9
2016-Jun-17 12:32N 35°43' E 014°41'1 0.8
2016-Jun-17 11:33N 35°43' E 014°42'1 0.6
2016-Jun-17 10:33N 35°43' E 014°43'0 0.3
2016-Jun-17 09:32N 35°42' E 014°43'0 0.3
2016-Jun-17 08:29N 35°42' E 014°43'0 0.1
2016-Jun-17 07:31N 35°42' E 014°43'0 0.5
2016-Jun-17 06:34N 35°42' E 014°43'0 0.4
2016-Jun-17 05:33N 35°41' E 014°42'1 0.7
2016-Jun-17 04:33N 35°41' E 014°42'1 1.1
2016-Jun-17 03:17N 35°40' E 014°41'1 1.5
2016-Jun-17 02:31N 35°39' E 014°40'1 1.3
2016-Jun-17 01:32N 35°37' E 014°40'5 4.9
2016-Jun-17 00:31N 35°42' E 014°39'1 1.4
2016-Jun-16 23:33N 35°44' E 014°39'2 1.9
2016-Jun-16 22:33N 35°42' E 014°40'2 1.7
2016-Jun-16 21:33N 35°40' E 014°40'1 0.9
2016-Jun-16 20:33N 35°41' E 014°39'5 5.3
2016-Jun-16 19:33N 35°43' E 014°33'2 1.6
2016-Jun-16 18:33N 35°41' E 014°34'1 1.5
2016-Jun-16 17:33N 35°40' E 014°36'3 2.6
2016-Jun-16 16:33N 35°43' E 014°37'1 1.1
2016-Jun-16 15:33N 35°44' E 014°37'1 1.0
2016-Jun-16 14:33N 35°43' E 014°38'1 0.8
2016-Jun-16 13:33N 35°42' E 014°39'1 0.6
2016-Jun-16 12:33N 35°42' E 014°39'1 0.6
2016-Jun-16 11:33N 35°41' E 014°39'1 1.5
2016-Jun-16 10:33N 35°42' E 014°40'1 1.4
2016-Jun-16 09:33N 35°44' E 014°41'1 1.1
2016-Jun-16 08:33N 35°43' E 014°40'1 1.1
2016-Jun-16 07:33N 35°42' E 014°39'0 0.4
2016-Jun-16 06:33N 35°42' E 014°39'2 0.8
2016-Jun-16 04:26N 35°43' E 014°38'1 0.8
2016-Jun-16 03:31N 35°42' E 014°38'1 1.0
2016-Jun-16 02:33N 35°42' E 014°38'1 1.2
2016-Jun-16 01:28N 35°40' E 014°38'3 3.6
2016-Jun-16 00:31N 35°40' E 014°34'6 6.1
2016-Jun-15 23:33N 35°41' E 014°26'8 7.6
2016-Jun-15 22:33N 35°42' E 014°17'1211.9
2016-Jun-15 21:33N 35°48' E 014°05'1211.9
2016-Jun-15 20:33N 35°55' E 013°53'1211.8
2016-Jun-15 19:33N 36°02' E 013°41'1111.6
2016-Jun-15 18:33N 36°09' E 013°30'1111.4
2016-Jun-15 17:33N 36°16' E 013°18'1211.6
2016-Jun-15 16:33N 36°23' E 013°07'1211.9
2016-Jun-15 15:33N 36°30' E 012°55'1312.7
2016-Jun-15 14:33N 36°37' E 012°42'2713.5
2016-Jun-15 12:32N 36°53' E 012°15'2712.2
2016-Jun-15 10:19N 37°07' E 011°45'912.0
2016-Jun-15 09:33N 37°11' E 011°35'1212.3
2016-Jun-15 08:33N 37°17' E 011°21'1313.1
2016-Jun-15 07:33N 37°23' E 011°07'  
Track history (hours):
 
Tides and Currents Weather Stations Pressure Air Temp Water Temp Dewpoint Dewpoint Depression Visibility Wind Speed Wind Dir Waves Ship Positions

Em Athens

Last reported at 2016-Jun-24 21:24 UTC. Time now 2016-Jun-24 22:23 UTC.
Position N 42°54' E 004°52'.

Length 207 m; draft 9.5 m.

Type: Ship (hazmat cat C). MMSI: 538004019.

Date/timePositionNaut miles runAvg speedWind from/ knotsBaromVisibWave heightAir tempDewpointWater temp
2016-Jun-24 21:24N 42°54' E 004°52'1214.0
2016-Jun-24 20:34N 43°03' E 005°02'1513.2
2016-Jun-24 19:24N 43°17' E 005°11'5 0.1
2016-Jun-23 05:12N 43°20' E 005°16'6 8.8
2016-Jun-23 04:33N 43°16' E 005°11'5913.7
2016-Jun-23 00:15N 42°45' E 006°19'41 9.9
2016-Jun-22 20:06N 43°08' E 007°05'612.1
2016-Jun-22 19:33N 43°13' E 007°11'1312.9
2016-Jun-22 18:33N 43°21' E 007°26'1413.6
2016-Jun-22 17:33N 43°28' E 007°42'3213.8
2016-Jun-22 15:16N 43°45' E 008°18'1013.6
2016-Jun-22 14:33N 43°51' E 008°28'1413.9
2016-Jun-22 13:33N 44°02' E 008°40'1414.0
2016-Jun-22 12:33N 44°14' E 008°51'1110.5
2016-Jun-22 11:33N 44°24' E 008°55'1 1.0
2016-Jun-22 10:29N 44°24' E 008°54'0 0.0
2016-Jun-22 09:29N 44°24' E 008°54'0 0.0
2016-Jun-22 08:32N 44°24' E 008°54'0 0.0
2016-Jun-22 07:32N 44°24' E 008°54'0 0.0
2016-Jun-22 06:32N 44°24' E 008°54'0 0.0
2016-Jun-22 05:32N 44°24' E 008°54'0 0.0
2016-Jun-22 04:32N 44°24' E 008°54'1 0.6
2016-Jun-22 03:33N 44°24' E 008°55'5 5.4
2016-Jun-22 02:33N 44°19' E 008°56'3 3.0
2016-Jun-22 01:33N 44°16' E 008°53'0 0.3
2016-Jun-22 00:33N 44°16' E 008°54'0 0.3
2016-Jun-21 23:33N 44°17' E 008°53'0 0.1
2016-Jun-21 22:33N 44°17' E 008°53'1 0.7
2016-Jun-21 21:33N 44°17' E 008°54'7 7.4
2016-Jun-21 20:33N 44°12' E 009°03'1313.0
2016-Jun-21 19:33N 44°02' E 009°14'1313.1
2016-Jun-21 18:33N 43°53' E 009°27'1313.1
2016-Jun-21 17:33N 43°44' E 009°40'1313.0
2016-Jun-21 16:33N 43°35' E 009°53'1212.4
2016-Jun-21 15:33N 43°30' E 010°09'8 7.5
2016-Jun-21 14:33N 43°34' E 010°18'0 0.1
2016-Jun-21 13:31N 43°34' E 010°18'0 0.0
2016-Jun-21 12:31N 43°34' E 010°18'0 0.0
2016-Jun-21 11:22N 43°34' E 010°18'0 0.0
2016-Jun-21 10:31N 43°34' E 010°18'0 0.0
2016-Jun-21 09:31N 43°34' E 010°18'0 0.0
2016-Jun-21 08:31N 43°34' E 010°18'0 0.0
2016-Jun-21 07:31N 43°34' E 010°18'1 0.6
2016-Jun-21 06:33N 43°34' E 010°18'3 1.6
2016-Jun-21 04:30N 43°31' E 010°17'0 0.0
2016-Jun-21 03:33N 43°31' E 010°17'0 0.0
2016-Jun-21 02:33N 43°31' E 010°17'0 0.0
2016-Jun-21 01:33N 43°31' E 010°17'0 0.0
2016-Jun-21 00:33N 43°31' E 010°17'0 0.1
2016-Jun-20 23:33N 43°31' E 010°17'0 0.0
2016-Jun-20 22:33N 43°31' E 010°17'0 0.0
2016-Jun-20 21:30N 43°31' E 010°17'0 0.0
2016-Jun-20 20:33N 43°31' E 010°17'0 0.0
2016-Jun-20 19:33N 43°31' E 010°17'0 0.0
2016-Jun-20 18:33N 43°31' E 010°17'0 0.0
2016-Jun-20 17:27N 43°31' E 010°17'0 0.0
2016-Jun-20 16:33N 43°31' E 010°17'0 0.0
2016-Jun-20 15:33N 43°31' E 010°17'0 0.1
2016-Jun-20 14:33N 43°31' E 010°16'8 7.9
2016-Jun-20 13:33N 43°24' E 010°11'1212.3
2016-Jun-20 12:33N 43°12' E 010°06'1212.3
2016-Jun-20 11:33N 43°01' E 010°00'37012.5
2016-Jun-19 06:04N 37°11' E 012°36'611.8
2016-Jun-19 05:33N 37°06' E 012°41'1211.9
2016-Jun-19 04:33N 36°57' E 012°51'1212.3
2016-Jun-19 03:33N 36°48' E 013°02'1212.3
2016-Jun-19 02:33N 36°40' E 013°13'1211.9
2016-Jun-19 01:33N 36°31' E 013°23'1211.8
2016-Jun-19 00:33N 36°22' E 013°33'1212.0
2016-Jun-18 23:33N 36°13' E 013°43'1312.6
2016-Jun-18 22:33N 36°04' E 013°53'1313.0
2016-Jun-18 21:33N 35°55' E 014°04'1212.3
2016-Jun-18 20:33N 35°46' E 014°15'1111.1
2016-Jun-18 19:33N 35°45' E 014°29'5 4.6
2016-Jun-18 18:32N 35°49' E 014°32'0 0.0
2016-Jun-17 23:19N 35°49' E 014°32'7 4.1
2016-Jun-17 21:33N 35°42' E 014°30'1 0.7
2016-Jun-17 20:33N 35°41' E 014°31'1 0.9
2016-Jun-17 19:33N 35°41' E 014°31'1 1.0
2016-Jun-17 18:32N 35°40' E 014°32'4 1.3
2016-Jun-17 15:32N 35°38' E 014°36'3 2.8
2016-Jun-17 14:32N 35°40' E 014°37'4 4.1
2016-Jun-17 13:30N 35°43' E 014°40'1 0.9
2016-Jun-17 12:32N 35°43' E 014°41'1 0.8
2016-Jun-17 11:33N 35°43' E 014°42'1 0.6
2016-Jun-17 10:33N 35°43' E 014°43'0 0.3
2016-Jun-17 09:32N 35°42' E 014°43'0 0.3
2016-Jun-17 08:29N 35°42' E 014°43'0 0.1
2016-Jun-17 07:31N 35°42' E 014°43'0 0.5
2016-Jun-17 06:34N 35°42' E 014°43'0 0.4
2016-Jun-17 05:33N 35°41' E 014°42'1 0.7
2016-Jun-17 04:33N 35°41' E 014°42'1 1.1
2016-Jun-17 03:17N 35°40' E 014°41'1 1.5
2016-Jun-17 02:31N 35°39' E 014°40'1 1.3
2016-Jun-17 01:32N 35°37' E 014°40'5 4.9
2016-Jun-17 00:31N 35°42' E 014°39'1 1.4
2016-Jun-16 23:33N 35°44' E 014°39'2 1.9
2016-Jun-16 22:33N 35°42' E 014°40'2 1.7
2016-Jun-16 21:33N 35°40' E 014°40'1 0.9
2016-Jun-16 20:33N 35°41' E 014°39'5 5.3
2016-Jun-16 19:33N 35°43' E 014°33'2 1.6
2016-Jun-16 18:33N 35°41' E 014°34'1 1.5
2016-Jun-16 17:33N 35°40' E 014°36'3 2.6
2016-Jun-16 16:33N 35°43' E 014°37'1 1.1
2016-Jun-16 15:33N 35°44' E 014°37'1 1.0
2016-Jun-16 14:33N 35°43' E 014°38'1 0.8
2016-Jun-16 13:33N 35°42' E 014°39'1 0.6
2016-Jun-16 12:33N 35°42' E 014°39'1 0.6
2016-Jun-16 11:33N 35°41' E 014°39'1 1.5
2016-Jun-16 10:33N 35°42' E 014°40'1 1.4
2016-Jun-16 09:33N 35°44' E 014°41'1 1.1
2016-Jun-16 08:33N 35°43' E 014°40'1 1.1
2016-Jun-16 07:33N 35°42' E 014°39'0 0.4
2016-Jun-16 06:33N 35°42' E 014°39'2 0.8
2016-Jun-16 04:26N 35°43' E 014°38'1 0.8
2016-Jun-16 03:31N 35°42' E 014°38'1 1.0
2016-Jun-16 02:33N 35°42' E 014°38'1 1.2
2016-Jun-16 01:28N 35°40' E 014°38'3 3.6
2016-Jun-16 00:31N 35°40' E 014°34'6 6.1
2016-Jun-15 23:33N 35°41' E 014°26'8 7.6
2016-Jun-15 22:33N 35°42' E 014°17'1211.9
2016-Jun-15 21:33N 35°48' E 014°05'1211.9
2016-Jun-15 20:33N 35°55' E 013°53'1211.8
2016-Jun-15 19:33N 36°02' E 013°41'1111.6
2016-Jun-15 18:33N 36°09' E 013°30'1111.4
2016-Jun-15 17:33N 36°16' E 013°18'1211.6
2016-Jun-15 16:33N 36°23' E 013°07'1211.9
2016-Jun-15 15:33N 36°30' E 012°55'1312.7
2016-Jun-15 14:33N 36°37' E 012°42'2713.5
2016-Jun-15 12:32N 36°53' E 012°15'2712.2
2016-Jun-15 10:19N 37°07' E 011°45'912.0
2016-Jun-15 09:33N 37°11' E 011°35'1212.3
2016-Jun-15 08:33N 37°17' E 011°21'1313.1
2016-Jun-15 07:33N 37°23' E 011°07'  

Dump ship's entire track history